createdAt,value
2022-12-20T00:00:09.652Z,100832.06
2022-12-20T00:02:41.121Z,100829.97
2022-12-20T00:05:12.541Z,100838.34
2022-12-20T00:07:43.999Z,100843.75
2022-12-20T00:10:15.999Z,100850.84
2022-12-20T00:12:47.338Z,100845.84
2022-12-20T00:15:18.866Z,100848.97
2022-12-20T00:17:50.564Z,100857.28
2022-12-20T00:20:21.889Z,100854.59
2022-12-20T00:22:53.260Z,100861.28
2022-12-20T00:25:24.823Z,100867.50
2022-12-20T00:27:56.158Z,100872.25
2022-12-20T00:30:27.626Z,100875.63
2022-12-20T00:32:59.113Z,100881.25
2022-12-20T00:35:30.994Z,100875.88
2022-12-20T00:38:02.946Z,100887.06
2022-12-20T00:40:34.327Z,100898.28
2022-12-20T00:43:05.877Z,100897.91
2022-12-20T00:45:37.255Z,100903.94
2022-12-20T00:48:09.132Z,100909.97
2022-12-20T00:50:41.051Z,100907.91
2022-12-20T00:53:12.549Z,100903.34
2022-12-20T00:55:45.947Z,100907.91
2022-12-20T00:58:18.369Z,100912.00
2022-12-20T01:00:55.761Z,100909.88
2022-12-20T01:03:28.357Z,100899.88
2022-12-20T01:06:00.788Z,100912.34
2022-12-20T01:08:33.395Z,100901.84
2022-12-20T01:11:26.300Z,100920.69
2022-12-20T01:13:58.673Z,100926.50
2022-12-20T01:16:40.157Z,100928.13
2022-12-20T01:19:14.589Z,100898.38
2022-12-20T01:21:46.313Z,100927.53
2022-12-20T01:24:19.972Z,100887.06
2022-12-20T01:26:51.376Z,100934.59
2022-12-20T01:29:23.094Z,100939.56
2022-12-20T01:31:55.465Z,100934.34
2022-12-20T01:34:26.878Z,100941.63
2022-12-20T01:36:58.402Z,100953.22
2022-12-20T01:39:29.947Z,100948.22
2022-12-20T01:42:01.788Z,100941.63
2022-12-20T01:44:33.010Z,100952.44
2022-12-20T01:47:05.214Z,100960.31
2022-12-20T01:49:44.602Z,100908.94
2022-12-20T01:52:35.050Z,100926.66
2022-12-20T01:55:29.942Z,100910.03
2022-12-20T01:58:07.142Z,100918.41
2022-12-20T02:00:39.088Z,100963.75
2022-12-20T02:03:14.253Z,100981.91
2022-12-20T02:05:48.613Z,100968.00
2022-12-20T02:08:22.318Z,100967.19
2022-12-20T02:11:26.773Z,100968.78
2022-12-20T02:14:13.317Z,100970.53
2022-12-20T02:17:06.822Z,100926.41
2022-12-20T02:19:56.223Z,100969.25
2022-12-20T02:22:46.337Z,100962.66
2022-12-20T02:25:49.283Z,100960.59
2022-12-20T02:28:36.148Z,100964.59
2022-12-20T02:31:13.712Z,100968.34
2022-12-20T02:33:51.826Z,100959.84
2022-12-20T02:36:24.055Z,100919.13
2022-12-20T02:38:57.484Z,100951.16
2022-12-20T02:41:41.208Z,100926.81
2022-12-20T02:44:36.869Z,100937.88
2022-12-20T02:47:14.490Z,100938.72
2022-12-20T02:49:48.085Z,100933.72
2022-12-20T02:52:22.335Z,100878.03
2022-12-20T02:54:54.544Z,100937.06
2022-12-20T02:57:45.795Z,100926.25
2022-12-20T03:00:23.772Z,100866.00
2022-12-20T03:03:14.688Z,100913.00
2022-12-20T03:05:49.598Z,100920.09
2022-12-20T03:08:23.994Z,100874.97
2022-12-20T03:10:57.477Z,100910.50
2022-12-20T03:13:29.371Z,100909.91
2022-12-20T03:16:06.460Z,100906.78
2022-12-20T03:18:38.020Z,100900.94
2022-12-20T03:21:09.720Z,100892.63
2022-12-20T03:23:41.126Z,100895.13
2022-12-20T03:26:12.572Z,100899.72
2022-12-20T03:28:48.535Z,100896.38
2022-12-20T03:31:24.262Z,100889.06
2022-12-20T03:33:58.635Z,100879.91
2022-12-20T03:36:30.608Z,100881.16
2022-12-20T03:39:06.374Z,100873.06
2022-12-20T03:41:41.949Z,100875.16
2022-12-20T03:44:15.476Z,100869.31
2022-12-20T03:46:47.120Z,100859.31
2022-12-20T03:49:18.727Z,100843.94
2022-12-20T03:51:55.371Z,100848.94
2022-12-20T03:54:26.392Z,100847.50
2022-12-20T03:57:19.311Z,100830.63
2022-12-20T03:59:53.589Z,100833.72
2022-12-20T04:02:25.285Z,100832.66
2022-12-20T04:04:57.701Z,100827.66
2022-12-20T04:07:29.260Z,100833.22
2022-12-20T04:10:00.665Z,100821.38
2022-12-20T04:12:33.790Z,100822.00
2022-12-20T04:15:06.045Z,100812.25
2022-12-20T04:17:41.371Z,100811.78
2022-12-20T04:20:20.630Z,100754.09
2022-12-20T04:23:12.174Z,100800.97
2022-12-20T04:25:43.708Z,100763.25
2022-12-20T04:28:15.571Z,100799.09
2022-12-20T04:30:47.448Z,100782.03
2022-12-20T04:33:25.558Z,100787.63
2022-12-20T04:35:57.742Z,100779.31
2022-12-20T04:38:29.710Z,100780.53
2022-12-20T04:41:01.421Z,100765.13
2022-12-20T04:43:42.677Z,100758.88
2022-12-20T04:46:14.315Z,100745.97
2022-12-20T04:48:57.068Z,100739.31
2022-12-20T04:51:31.012Z,100740.13
2022-12-20T04:54:01.783Z,100724.53
2022-12-20T04:56:58.888Z,100717.81
2022-12-20T04:59:31.785Z,100716.56
2022-12-20T05:02:03.737Z,100708.28
2022-12-20T05:05:04.820Z,100699.16
2022-12-20T05:07:42.541Z,100682.97
2022-12-20T05:10:15.285Z,100689.44
2022-12-20T05:12:48.551Z,100683.41
2022-12-20T05:15:29.118Z,100661.84
2022-12-20T05:18:01.250Z,100665.59
2022-12-20T05:20:42.644Z,100666.63
2022-12-20T05:23:33.277Z,100651.91
2022-12-20T05:26:20.793Z,100658.31
2022-12-20T05:28:54.509Z,100654.41
2022-12-20T05:31:26.081Z,100647.78
2022-12-20T05:33:58.017Z,100641.16
2022-12-20T05:36:33.767Z,100634.28
2022-12-20T05:39:07.870Z,100639.06
2022-12-20T05:41:43.507Z,100634.09
2022-12-20T05:44:15.379Z,100634.09
2022-12-20T05:46:51.239Z,100622.44
2022-12-20T05:49:28.659Z,100612.06
2022-12-20T05:52:04.535Z,100609.16
2022-12-20T05:54:36.291Z,100605.44
2022-12-20T05:57:12.239Z,100607.09
2022-12-20T05:59:46.829Z,100602.53
2022-12-20T06:02:26.127Z,100597.56
2022-12-20T06:05:05.297Z,100596.53
2022-12-20T06:07:37.424Z,100594.66
2022-12-20T06:10:10.409Z,100573.50
2022-12-20T06:12:53.943Z,100574.91
2022-12-20T06:15:27.333Z,100574.09
2022-12-20T06:17:59.667Z,100563.69
2022-12-20T06:20:31.173Z,100564.09
2022-12-20T06:23:05.779Z,100550.16
2022-12-20T06:25:45.340Z,100556.00
2022-12-20T06:28:22.844Z,100536.47
2022-12-20T06:30:59.311Z,100533.34
2022-12-20T06:33:43.584Z,100500.78
2022-12-20T06:36:16.135Z,100521.47
2022-12-20T06:38:47.777Z,100515.66
2022-12-20T06:41:20.503Z,100517.31
2022-12-20T06:43:52.184Z,100509.38
2022-12-20T06:46:23.907Z,100510.31
2022-12-20T06:48:58.207Z,100504.19
2022-12-20T06:51:31.361Z,100492.53
2022-12-20T06:54:04.609Z,100498.28
2022-12-20T06:56:41.517Z,100496.34
2022-12-20T06:59:16.251Z,100499.13
2022-12-20T07:01:47.725Z,100504.03
2022-12-20T07:04:19.634Z,100489.63
2022-12-20T07:06:51.011Z,100480.00
2022-12-20T07:09:22.433Z,100488.63
2022-12-20T07:11:54.200Z,100476.06
2022-12-20T07:14:26.652Z,100480.09
2022-12-20T07:16:58.253Z,100478.38
2022-12-20T07:19:29.519Z,100478.97
2022-12-20T07:22:00.767Z,100469.94
2022-12-20T07:24:32.722Z,100452.47
2022-12-20T07:27:04.586Z,100465.19
2022-12-20T07:29:37.650Z,100464.63
2022-12-20T07:32:09.519Z,100461.25
2022-12-20T07:34:41.340Z,100457.88
2022-12-20T07:37:12.704Z,100464.00
2022-12-20T07:39:44.235Z,100460.13
2022-12-20T07:42:15.600Z,100456.66
2022-12-20T07:44:49.123Z,100451.75
2022-12-20T07:47:20.480Z,100453.91
2022-12-20T07:49:52.860Z,100441.66
2022-12-20T07:52:30.588Z,100444.03
2022-12-20T07:55:05.760Z,100390.16
2022-12-20T07:57:51.623Z,100391.47
2022-12-20T08:00:23.108Z,100434.84
2022-12-20T08:03:16.076Z,100428.94
2022-12-20T08:05:53.416Z,100429.00
2022-12-20T08:08:24.882Z,100420.94
2022-12-20T08:10:56.192Z,100436.97
2022-12-20T08:13:27.589Z,100433.53
2022-12-20T08:16:02.212Z,100439.09
2022-12-20T08:18:33.696Z,100438.94
2022-12-20T08:21:05.092Z,100447.19
2022-12-20T08:23:36.498Z,100433.72
2022-12-20T08:26:08.206Z,100445.63
2022-12-20T08:28:40.142Z,100446.47
2022-12-20T08:31:14.233Z,100452.34
2022-12-20T08:33:45.704Z,100445.34
2022-12-20T08:36:17.664Z,100448.22
2022-12-20T08:38:48.960Z,100454.09
2022-12-20T08:41:20.313Z,100449.75
2022-12-20T08:43:51.736Z,100451.16
2022-12-20T08:46:23.168Z,100410.06
2022-12-20T08:48:54.806Z,100451.16
2022-12-20T08:51:26.257Z,100459.50
2022-12-20T08:53:58.115Z,100456.66
2022-12-20T08:56:29.468Z,100461.41
2022-12-20T08:59:01.009Z,100458.28
2022-12-20T09:01:35.138Z,100462.06
2022-12-20T09:04:06.779Z,100459.81
2022-12-20T09:06:38.587Z,100466.31
2022-12-20T09:09:10.602Z,100459.22
2022-12-20T09:11:43.687Z,100461.75
2022-12-20T09:14:15.352Z,100463.00
2022-12-20T09:16:46.893Z,100468.84
2022-12-20T09:19:18.645Z,100469.88
2022-12-20T09:21:49.994Z,100464.25
2022-12-20T09:24:21.415Z,100470.28
2022-12-20T09:26:52.653Z,100477.16
2022-12-20T09:29:29.485Z,100487.88
2022-12-20T09:32:00.881Z,100483.28
2022-12-20T09:34:32.453Z,100486.13
2022-12-20T09:37:03.706Z,100495.03
2022-12-20T09:39:35.001Z,100497.59
2022-12-20T09:42:11.237Z,100484.41
2022-12-20T09:44:44.791Z,100451.53
2022-12-20T09:47:25.012Z,100478.84
2022-12-20T09:49:59.503Z,100453.06
2022-12-20T09:52:39.921Z,100510.31
2022-12-20T09:55:18.010Z,100513.38
2022-12-20T09:58:16.693Z,100505.13
2022-12-20T10:00:54.342Z,100464.97
2022-12-20T10:03:31.414Z,100522.81
2022-12-20T10:06:13.871Z,100537.56
2022-12-20T10:09:31.996Z,100538.94
2022-12-20T10:12:37.443Z,100514.28
2022-12-20T10:15:25.017Z,100553.38
2022-12-20T10:18:34.140Z,100554.06
2022-12-20T10:21:17.068Z,100558.94
2022-12-20T10:23:56.241Z,100563.06
2022-12-20T10:26:27.621Z,100575.78
2022-12-20T10:28:59.036Z,100575.56
2022-12-20T10:31:30.543Z,100573.38
2022-12-20T10:34:01.856Z,100580.16
2022-12-20T10:36:38.649Z,100571.41
2022-12-20T10:39:12.324Z,100587.34
2022-12-20T10:41:46.459Z,100587.34
2022-12-20T10:44:30.562Z,100578.94
2022-12-20T10:47:03.045Z,100537.19
2022-12-20T10:49:42.648Z,100596.56
2022-12-20T10:52:19.046Z,100601.38
2022-12-20T10:54:50.557Z,100588.16
2022-12-20T10:57:23.664Z,100590.25
2022-12-20T11:00:01.760Z,100615.75
2022-12-20T11:02:41.204Z,100597.34
2022-12-20T11:05:13.317Z,100617.88
2022-12-20T11:08:33.742Z,100632.19
2022-12-20T11:10:48.011Z,100636.50
2022-12-20T11:13:27.533Z,100632.72
2022-12-20T11:16:02.911Z,100639.81
2022-12-20T11:18:57.454Z,100587.03
2022-12-20T11:21:46.740Z,100596.00
2022-12-20T11:24:58.104Z,100656.25
2022-12-20T11:27:42.212Z,100607.69
2022-12-20T11:30:53.503Z,100668.03
2022-12-20T11:33:27.599Z,100673.34
2022-12-20T11:36:24.663Z,100677.66
2022-12-20T11:39:12.319Z,100634.63
2022-12-20T11:41:57.668Z,100642.50
2022-12-20T11:45:01.979Z,100694.00
2022-12-20T11:47:52.740Z,100699.63
2022-12-20T11:50:43.048Z,100710.72
2022-12-20T11:53:56.031Z,100711.38
2022-12-20T11:56:43.554Z,100722.97
2022-12-20T11:59:47.389Z,100722.91
2022-12-20T12:02:24.778Z,100733.44
2022-12-20T12:05:03.569Z,100733.44
2022-12-20T12:07:38.368Z,100631.75
2022-12-20T12:10:24.957Z,100731.09
2022-12-20T12:13:15.180Z,100741.50
2022-12-20T12:16:09.040Z,100745.09
2022-12-20T12:18:43.652Z,100659.88
2022-12-20T12:21:24.397Z,100751.41
2022-12-20T12:24:16.838Z,100753.41
2022-12-20T12:26:47.674Z,100753.16
2022-12-20T12:29:20.903Z,100745.03
2022-12-20T12:32:09.226Z,100771.16
2022-12-20T12:35:11.562Z,100773.25
2022-12-20T12:37:56.982Z,100680.81
2022-12-20T12:40:35.851Z,100774.19
2022-12-20T12:43:42.592Z,100780.34
2022-12-20T12:46:31.972Z,100771.16
2022-12-20T12:49:17.112Z,100734.34
2022-12-20T12:51:57.915Z,100774.06
2022-12-20T12:54:31.871Z,100791.03
2022-12-20T12:57:18.328Z,100791.97
2022-12-20T12:59:53.386Z,100735.53
2022-12-20T13:02:24.666Z,100795.88
2022-12-20T13:05:01.491Z,100804.03
2022-12-20T13:07:36.626Z,100807.31
2022-12-20T13:10:26.498Z,100809.44
2022-12-20T13:13:14.201Z,100812.72
2022-12-20T13:15:46.516Z,100814.63
2022-12-20T13:18:18.145Z,100824.03
2022-12-20T13:21:41.448Z,100825.97
2022-12-20T13:24:37.525Z,100838.31
2022-12-20T13:27:29.033Z,100838.13
2022-12-20T13:30:12.126Z,100840.09
2022-12-20T13:32:49.664Z,100830.22
2022-12-20T13:35:27.018Z,100829.84
2022-12-20T13:38:09.287Z,100832.00
2022-12-20T13:40:50.847Z,100820.00
2022-12-20T13:43:23.207Z,100818.78
2022-12-20T13:46:17.585Z,100729.88
2022-12-20T13:48:49.469Z,100813.84
2022-12-20T13:51:22.098Z,100754.97
2022-12-20T13:54:08.744Z,100808.06
2022-12-20T13:56:50.021Z,100799.75
2022-12-20T13:59:34.679Z,100798.75
2022-12-20T14:02:13.684Z,100765.19
2022-12-20T14:04:54.349Z,100751.75
2022-12-20T14:07:26.121Z,100809.22
2022-12-20T14:10:01.140Z,100814.88
2022-12-20T14:12:36.861Z,100816.34
2022-12-20T14:15:30.616Z,100818.72
2022-12-20T14:18:37.207Z,100822.50
2022-12-20T14:21:10.693Z,100818.75
2022-12-20T14:23:52.191Z,100829.16
2022-12-20T14:26:40.790Z,100828.34
2022-12-20T14:29:20.221Z,100834.19
2022-12-20T14:31:52.932Z,100827.13
2022-12-20T14:34:30.904Z,100841.09
2022-12-20T14:37:39.157Z,100834.53
2022-12-20T14:40:14.050Z,100834.25
2022-12-20T14:42:47.144Z,100840.94
2022-12-20T14:45:25.186Z,100801.50
2022-12-20T14:48:08.234Z,100790.69
2022-12-20T14:50:44.166Z,100835.16
2022-12-20T14:53:30.503Z,100839.31
2022-12-20T14:56:02.790Z,100836.84
2022-12-20T14:58:36.871Z,100830.81
2022-12-20T15:01:33.877Z,100820.66
2022-12-20T15:04:36.123Z,100774.59
2022-12-20T15:07:27.680Z,100812.34
2022-12-20T15:10:00.571Z,100811.50
2022-12-20T15:12:33.235Z,100812.75
2022-12-20T15:15:27.615Z,100798.59
2022-12-20T15:17:58.774Z,100787.81
2022-12-20T15:20:30.501Z,100795.72
2022-12-20T15:23:02.040Z,100772.88
2022-12-20T15:25:43.368Z,100739.50
2022-12-20T15:28:23.779Z,100746.75
2022-12-20T15:30:56.965Z,100733.91
2022-12-20T15:33:37.029Z,100794.50
2022-12-20T15:36:09.136Z,100791.78
2022-12-20T15:39:10.845Z,100778.75
2022-12-20T15:41:36.181Z,100764.41
2022-12-20T15:44:16.653Z,100789.72
2022-12-20T15:46:48.511Z,100762.09
2022-12-20T15:49:25.176Z,100718.97
2022-12-20T15:51:57.330Z,100789.94
2022-12-20T15:54:35.331Z,100776.91
2022-12-20T15:57:11.992Z,100728.09
2022-12-20T16:00:01.797Z,100789.53
2022-12-20T16:02:42.406Z,100792.88
2022-12-20T16:05:15.498Z,100798.28
2022-12-20T16:07:46.835Z,100794.09
2022-12-20T16:10:18.052Z,100790.81
2022-12-20T16:12:49.699Z,100747.63
2022-12-20T16:15:23.898Z,100777.06
2022-12-20T16:17:55.358Z,100788.47
2022-12-20T16:20:28.951Z,100787.88
2022-12-20T16:23:00.294Z,100779.75
2022-12-20T16:25:33.813Z,100719.19
2022-12-20T16:28:06.176Z,100773.31
2022-12-20T16:30:37.370Z,100771.66
2022-12-20T16:33:10.229Z,100760.84
2022-12-20T16:35:41.625Z,100765.41
2022-12-20T16:38:13.748Z,100759.16
2022-12-20T16:40:44.926Z,100749.63
2022-12-20T16:43:19.198Z,100699.03
2022-12-20T16:45:50.387Z,100752.13
2022-12-20T16:48:22.009Z,100746.31
2022-12-20T16:50:53.328Z,100745.47
2022-12-20T16:53:24.841Z,100747.34
2022-12-20T16:55:56.755Z,100750.88
2022-12-20T16:58:52.204Z,100742.16
2022-12-20T17:01:22.321Z,100742.16
2022-12-20T17:03:54.210Z,100718.94
2022-12-20T17:06:25.662Z,100733.88
2022-12-20T17:08:57.529Z,100733.06
2022-12-20T17:11:33.354Z,100680.13
2022-12-20T17:14:10.350Z,100725.13
2022-12-20T17:16:43.906Z,100716.84
2022-12-20T17:19:15.354Z,100723.06
2022-12-20T17:24:38.447Z,100705.63
2022-12-20T17:27:10.655Z,100702.75
2022-12-20T17:29:42.034Z,100697.72
2022-12-20T17:32:25.832Z,100694.44
2022-12-20T17:34:57.468Z,100689.63
2022-12-20T17:37:29.363Z,100689.63
2022-12-20T17:40:00.730Z,100683.63
2022-12-20T17:42:31.980Z,100691.94
2022-12-20T17:45:03.284Z,100681.38
2022-12-20T17:47:34.520Z,100677.81
2022-12-20T17:50:06.018Z,100663.25
2022-12-20T17:52:37.189Z,100669.31
2022-12-20T17:55:09.369Z,100672.00
2022-12-20T17:57:40.598Z,100664.97
2022-12-20T18:00:38.537Z,100608.97
2022-12-20T18:03:24.591Z,100663.25
2022-12-20T18:06:08.644Z,100651.22
2022-12-20T18:08:39.763Z,100645.84
2022-12-20T18:11:12.264Z,100648.72
2022-12-20T18:13:48.016Z,100645.84
2022-12-20T18:16:22.448Z,100643.97
2022-12-20T18:18:54.967Z,100637.09
2022-12-20T18:21:28.607Z,100587.38
2022-12-20T18:23:59.835Z,100636.09
2022-12-20T18:26:33.154Z,100617.22
2022-12-20T18:29:04.963Z,100630.91
2022-12-20T18:31:37.332Z,100639.03
2022-12-20T18:34:08.750Z,100629.25
2022-12-20T18:36:40.483Z,100627.59
2022-12-20T18:39:15.150Z,100570.81
2022-12-20T18:41:46.566Z,100604.97
2022-12-20T18:44:17.794Z,100578.69
2022-12-20T18:46:49.191Z,100610.56
2022-12-20T18:49:20.508Z,100607.88
2022-12-20T18:51:51.816Z,100603.53
2022-12-20T18:54:23.023Z,100598.13
2022-12-20T18:56:54.497Z,100582.16
2022-12-20T18:59:25.735Z,100588.59
2022-12-20T19:01:57.165Z,100581.53
2022-12-20T19:04:28.548Z,100586.09
2022-12-20T19:06:59.898Z,100583.63
2022-12-20T19:09:31.065Z,100576.56
2022-12-20T19:12:02.504Z,100560.81
2022-12-20T19:14:33.824Z,100575.13
2022-12-20T19:17:05.726Z,100573.06
2022-12-20T19:19:36.935Z,100576.56
2022-12-20T19:22:08.386Z,100567.84
2022-12-20T19:24:39.680Z,100568.47
2022-12-20T19:27:11.986Z,100559.16
2022-12-20T19:29:43.132Z,100562.47
2022-12-20T19:32:14.498Z,100562.88
2022-12-20T19:34:45.762Z,100562.06
2022-12-20T19:37:17.347Z,100559.59
2022-12-20T19:39:48.527Z,100559.59
2022-12-20T19:42:24.875Z,100557.91
2022-12-20T19:44:56.494Z,100552.94
2022-12-20T19:47:28.255Z,100550.44
2022-12-20T19:49:59.415Z,100501.31
2022-12-20T19:52:31.130Z,100551.06
2022-12-20T19:55:02.313Z,100553.38
2022-12-20T19:57:33.711Z,100527.88
2022-12-20T20:00:05.228Z,100552.75
2022-12-20T20:02:42.805Z,100537.63
2022-12-20T20:05:15.416Z,100544.22
2022-12-20T20:07:47.650Z,100535.53
2022-12-20T20:10:19.680Z,100536.13
2022-12-20T20:12:51.352Z,100521.22
2022-12-20T20:15:22.517Z,100541.75
2022-12-20T20:17:54.215Z,100544.22
2022-12-20T20:20:25.325Z,100541.75
2022-12-20T20:22:56.710Z,100540.72
2022-12-20T20:25:27.954Z,100544.66
2022-12-20T20:27:59.370Z,100535.34
2022-12-20T20:30:30.662Z,100538.25
2022-12-20T20:33:02.011Z,100530.38
2022-12-20T20:35:33.439Z,100545.09
2022-12-20T20:38:04.956Z,100539.06
2022-12-20T20:40:36.623Z,100543.44
2022-12-20T20:43:08.350Z,100531.59
2022-12-20T20:45:39.478Z,100550.91
2022-12-20T20:48:10.798Z,100552.94
2022-12-20T20:50:42.194Z,100555.88
2022-12-20T20:53:15.501Z,100563.75
2022-12-20T20:55:46.681Z,100566.44
2022-12-20T20:58:18.072Z,100566.25
2022-12-20T21:00:58.840Z,100527.50
2022-12-20T21:03:32.186Z,100525.63
2022-12-20T21:08:54.874Z,100587.84
2022-12-20T21:11:26.632Z,100590.53
2022-12-20T21:13:58.113Z,100595.75
2022-12-20T21:16:29.448Z,100587.66
2022-12-20T21:19:01.230Z,100601.13
2022-12-20T21:21:32.417Z,100612.13
2022-12-20T21:24:03.756Z,100598.63
2022-12-20T21:26:35.025Z,100609.66
2022-12-20T21:29:06.406Z,100611.50
2022-12-20T21:31:38.562Z,100607.34
2022-12-20T21:34:09.999Z,100600.94
2022-12-20T21:36:41.197Z,100604.03
2022-12-20T21:39:16.631Z,100600.28
2022-12-20T21:41:47.729Z,100600.72
2022-12-20T21:44:19.116Z,100592.84
2022-12-20T21:46:50.335Z,100601.13
2022-12-20T21:49:21.859Z,100594.50
2022-12-20T21:51:57.682Z,100607.59
2022-12-20T21:54:29.079Z,100608.59
2022-12-20T21:57:00.426Z,100596.59
2022-12-20T21:59:31.833Z,100602.81
2022-12-20T22:02:03.165Z,100595.31
2022-12-20T22:04:36.992Z,100608.38
2022-12-20T22:07:08.510Z,100605.69
2022-12-20T22:09:39.855Z,100610.69
2022-12-20T22:12:11.010Z,100615.25
2022-12-20T22:14:42.708Z,100605.72
2022-12-20T22:17:13.919Z,100610.28
2022-12-20T22:19:45.379Z,100597.00
2022-12-20T22:22:18.182Z,100617.31
2022-12-20T22:24:49.552Z,100619.38
2022-12-20T22:27:20.788Z,100616.69
2022-12-20T22:29:52.477Z,100617.94
2022-12-20T22:32:23.625Z,100614.19
2022-12-20T22:34:55.026Z,100625.59
2022-12-20T22:37:26.205Z,100631.81
2022-12-20T22:39:57.593Z,100619.19
2022-12-20T22:42:28.965Z,100643.47
2022-12-20T22:45:00.314Z,100638.88
2022-12-20T22:47:31.707Z,100653.38
2022-12-20T22:50:03.059Z,100658.19
2022-12-20T22:52:37.580Z,100651.56
2022-12-20T22:55:09.562Z,100660.03
2022-12-20T22:57:40.950Z,100665.63
2022-12-20T23:00:14.575Z,100668.34
2022-12-20T23:02:46.246Z,100657.13
2022-12-20T23:05:17.733Z,100666.47
2022-12-20T23:07:49.153Z,100663.16
2022-12-20T23:10:39.018Z,100663.34
2022-12-20T23:13:31.221Z,100662.31
2022-12-20T23:16:02.464Z,100680.78
2022-12-20T23:18:33.810Z,100677.69
2022-12-20T23:21:23.086Z,100682.66
2022-12-20T23:23:56.505Z,100683.28
2022-12-20T23:26:27.974Z,100679.16
2022-12-20T23:28:59.324Z,100682.91
2022-12-20T23:31:30.518Z,100681.84
2022-12-20T23:34:03.389Z,100689.53
2022-12-20T23:36:37.426Z,100698.22
2022-12-20T23:39:09.864Z,100686.63
2022-12-20T23:41:42.031Z,100704.88
2022-12-20T23:44:12.831Z,100707.19
2022-12-20T23:46:43.864Z,100707.34
2022-12-20T23:49:15.205Z,100719.78
2022-12-20T23:51:46.322Z,100723.53
2022-12-20T23:54:21.070Z,100693.25
2022-12-20T23:56:52.330Z,100732.44
2022-12-20T23:59:23.874Z,100736.59
